sensor_id;sensor_type;location;lat;lon;timestamp;P1;durP1;ratioP1;P2;durP2;ratioP2
6739;SDS011;3407;49.882;10.920;2022-11-20T00:01:26;28.43;;;15.37;;
6739;SDS011;3407;49.882;10.920;2022-11-20T00:06:23;26.33;;;15.03;;
6739;SDS011;3407;49.882;10.920;2022-11-20T00:11:20;27.07;;;15.80;;
6739;SDS011;3407;49.882;10.920;2022-11-20T00:16:18;25.23;;;15.33;;
6739;SDS011;3407;49.882;10.920;2022-11-20T00:21:17;25.40;;;15.50;;
6739;SDS011;3407;49.882;10.920;2022-11-20T00:26:15;25.67;;;14.03;;
6739;SDS011;3407;49.882;10.920;2022-11-20T00:31:13;24.17;;;15.93;;
6739;SDS011;3407;49.882;10.920;2022-11-20T00:36:11;24.57;;;15.70;;
6739;SDS011;3407;49.882;10.920;2022-11-20T00:41:09;27.87;;;17.27;;
6739;SDS011;3407;49.882;10.920;2022-11-20T00:46:07;26.33;;;15.40;;
6739;SDS011;3407;49.882;10.920;2022-11-20T00:51:12;27.50;;;16.30;;
6739;SDS011;3407;49.882;10.920;2022-11-20T00:56:10;25.47;;;14.57;;
6739;SDS011;3407;49.882;10.920;2022-11-20T01:01:08;29.77;;;17.73;;
6739;SDS011;3407;49.882;10.920;2022-11-20T01:06:22;27.77;;;15.67;;
6739;SDS011;3407;49.882;10.920;2022-11-20T01:11:21;27.80;;;15.97;;
6739;SDS011;3407;49.882;10.920;2022-11-20T01:16:19;27.10;;;15.43;;
6739;SDS011;3407;49.882;10.920;2022-11-20T01:21:20;23.67;;;14.90;;
6739;SDS011;3407;49.882;10.920;2022-11-20T01:26:19;25.23;;;15.20;;
6739;SDS011;3407;49.882;10.920;2022-11-20T01:31:27;26.60;;;15.67;;
6739;SDS011;3407;49.882;10.920;2022-11-20T01:36:30;24.50;;;15.23;;
6739;SDS011;3407;49.882;10.920;2022-11-20T01:41:28;27.33;;;16.33;;
6739;SDS011;3407;49.882;10.920;2022-11-20T01:47:00;24.27;;;14.53;;
6739;SDS011;3407;49.882;10.920;2022-11-20T01:52:00;27.77;;;14.47;;
6739;SDS011;3407;49.882;10.920;2022-11-20T01:56:59;28.93;;;16.13;;
6739;SDS011;3407;49.882;10.920;2022-11-20T02:01:56;26.07;;;15.60;;
6739;SDS011;3407;49.882;10.920;2022-11-20T02:06:54;24.43;;;14.70;;
6739;SDS011;3407;49.882;10.920;2022-11-20T02:11:55;26.93;;;15.13;;
6739;SDS011;3407;49.882;10.920;2022-11-20T02:16:51;26.17;;;15.07;;
6739;SDS011;3407;49.882;10.920;2022-11-20T02:27:06;31.67;;;16.77;;
6739;SDS011;3407;49.882;10.920;2022-11-20T02:32:04;27.13;;;16.47;;
6739;SDS011;3407;49.882;10.920;2022-11-20T02:37:00;25.03;;;15.40;;
6739;SDS011;3407;49.882;10.920;2022-11-20T02:41:56;31.53;;;17.20;;
6739;SDS011;3407;49.882;10.920;2022-11-20T02:46:52;24.20;;;14.80;;
6739;SDS011;3407;49.882;10.920;2022-11-20T02:51:47;30.17;;;15.87;;
6739;SDS011;3407;49.882;10.920;2022-11-20T02:56:43;28.13;;;15.80;;
6739;SDS011;3407;49.882;10.920;2022-11-20T03:01:38;27.23;;;16.13;;
6739;SDS011;3407;49.882;10.920;2022-11-20T03:06:34;25.17;;;15.27;;
6739;SDS011;3407;49.882;10.920;2022-11-20T03:11:30;25.37;;;14.60;;
6739;SDS011;3407;49.882;10.920;2022-11-20T03:16:26;29.57;;;15.97;;
6739;SDS011;3407;49.882;10.920;2022-11-20T03:21:21;27.00;;;14.43;;
6739;SDS011;3407;49.882;10.920;2022-11-20T03:26:18;28.20;;;16.17;;
6739;SDS011;3407;49.882;10.920;2022-11-20T03:31:16;28.03;;;15.70;;
6739;SDS011;3407;49.882;10.920;2022-11-20T03:36:13;27.43;;;16.57;;
6739;SDS011;3407;49.882;10.920;2022-11-20T03:41:11;26.17;;;15.57;;
6739;SDS011;3407;49.882;10.920;2022-11-20T03:46:09;26.93;;;14.27;;
6739;SDS011;3407;49.882;10.920;2022-11-20T03:51:08;26.83;;;15.40;;
6739;SDS011;3407;49.882;10.920;2022-11-20T03:56:04;28.73;;;15.53;;
6739;SDS011;3407;49.882;10.920;2022-11-20T04:01:04;23.50;;;14.63;;
6739;SDS011;3407;49.882;10.920;2022-11-20T04:06:13;25.70;;;15.77;;
6739;SDS011;3407;49.882;10.920;2022-11-20T04:11:14;29.97;;;16.87;;
6739;SDS011;3407;49.882;10.920;2022-11-20T04:16:12;29.03;;;16.07;;
6739;SDS011;3407;49.882;10.920;2022-11-20T04:21:07;22.90;;;14.67;;
6739;SDS011;3407;49.882;10.920;2022-11-20T04:26:04;23.30;;;14.20;;
6739;SDS011;3407;49.882;10.920;2022-11-20T04:31:07;24.63;;;15.27;;
6739;SDS011;3407;49.882;10.920;2022-11-20T04:41:04;27.97;;;15.57;;
6739;SDS011;3407;49.882;10.920;2022-11-20T04:46:01;27.47;;;15.23;;
6739;SDS011;3407;49.882;10.920;2022-11-20T04:50:57;24.23;;;14.70;;
6739;SDS011;3407;49.882;10.920;2022-11-20T04:56:04;28.43;;;16.30;;
6739;SDS011;3407;49.882;10.920;2022-11-20T05:01:04;26.60;;;16.67;;
6739;SDS011;3407;49.882;10.920;2022-11-20T05:06:02;27.33;;;15.37;;
6739;SDS011;3407;49.882;10.920;2022-11-20T05:11:07;24.87;;;16.00;;
6739;SDS011;3407;49.882;10.920;2022-11-20T05:16:09;31.87;;;16.20;;
6739;SDS011;3407;49.882;10.920;2022-11-20T05:21:06;26.03;;;15.60;;
6739;SDS011;3407;49.882;10.920;2022-11-20T05:26:04;31.23;;;15.70;;
6739;SDS011;3407;49.882;10.920;2022-11-20T05:31:05;22.20;;;14.97;;
6739;SDS011;3407;49.882;10.920;2022-11-20T05:36:05;23.13;;;14.67;;
6739;SDS011;3407;49.882;10.920;2022-11-20T05:41:08;29.80;;;15.70;;
6739;SDS011;3407;49.882;10.920;2022-11-20T05:46:04;27.43;;;15.83;;
6739;SDS011;3407;49.882;10.920;2022-11-20T05:51:01;30.57;;;18.07;;
6739;SDS011;3407;49.882;10.920;2022-11-20T06:01:03;28.83;;;16.43;;
6739;SDS011;3407;49.882;10.920;2022-11-20T06:06:00;29.10;;;16.70;;
6739;SDS011;3407;49.882;10.920;2022-11-20T06:10:56;26.73;;;16.03;;
6739;SDS011;3407;49.882;10.920;2022-11-20T06:15:52;28.53;;;16.73;;
6739;SDS011;3407;49.882;10.920;2022-11-20T06:20:48;27.10;;;16.77;;
6739;SDS011;3407;49.882;10.920;2022-11-20T06:25:44;29.17;;;17.13;;
6739;SDS011;3407;49.882;10.920;2022-11-20T06:30:44;27.60;;;15.30;;
6739;SDS011;3407;49.882;10.920;2022-11-20T06:35:40;30.03;;;17.03;;
6739;SDS011;3407;49.882;10.920;2022-11-20T06:40:38;27.60;;;15.53;;
6739;SDS011;3407;49.882;10.920;2022-11-20T06:45:36;30.67;;;16.60;;
6739;SDS011;3407;49.882;10.920;2022-11-20T06:50:31;27.43;;;16.10;;
6739;SDS011;3407;49.882;10.920;2022-11-20T06:55:27;26.07;;;14.03;;
6739;SDS011;3407;49.882;10.920;2022-11-20T07:00:22;27.53;;;15.60;;
6739;SDS011;3407;49.882;10.920;2022-11-20T07:05:18;26.97;;;16.13;;
6739;SDS011;3407;49.882;10.920;2022-11-20T07:10:14;30.33;;;16.33;;
6739;SDS011;3407;49.882;10.920;2022-11-20T07:15:09;26.50;;;16.00;;
6739;SDS011;3407;49.882;10.920;2022-11-20T07:20:05;25.67;;;16.63;;
6739;SDS011;3407;49.882;10.920;2022-11-20T07:25:01;26.87;;;16.93;;
6739;SDS011;3407;49.882;10.920;2022-11-20T07:29:57;32.53;;;16.20;;
6739;SDS011;3407;49.882;10.920;2022-11-20T07:34:52;25.63;;;14.50;;
6739;SDS011;3407;49.882;10.920;2022-11-20T07:39:48;25.37;;;15.27;;
6739;SDS011;3407;49.882;10.920;2022-11-20T07:44:43;30.00;;;16.27;;
6739;SDS011;3407;49.882;10.920;2022-11-20T07:49:39;24.87;;;16.30;;
6739;SDS011;3407;49.882;10.920;2022-11-20T07:54:34;28.17;;;16.73;;
6739;SDS011;3407;49.882;10.920;2022-11-20T07:59:30;25.70;;;15.87;;
6739;SDS011;3407;49.882;10.920;2022-11-20T08:04:25;25.33;;;14.17;;
6739;SDS011;3407;49.882;10.920;2022-11-20T08:09:21;27.17;;;16.20;;
6739;SDS011;3407;49.882;10.920;2022-11-20T08:14:16;24.70;;;16.47;;
6739;SDS011;3407;49.882;10.920;2022-11-20T08:19:12;24.47;;;14.53;;
6739;SDS011;3407;49.882;10.920;2022-11-20T08:24:09;25.30;;;15.23;;
6739;SDS011;3407;49.882;10.920;2022-11-20T08:29:06;23.77;;;14.67;;
6739;SDS011;3407;49.882;10.920;2022-11-20T08:34:02;24.20;;;14.87;;
6739;SDS011;3407;49.882;10.920;2022-11-20T08:38:57;24.10;;;14.40;;
6739;SDS011;3407;49.882;10.920;2022-11-20T08:44:00;22.07;;;15.60;;
6739;SDS011;3407;49.882;10.920;2022-11-20T08:48:57;23.87;;;15.43;;
6739;SDS011;3407;49.882;10.920;2022-11-20T08:53:53;25.10;;;16.50;;
6739;SDS011;3407;49.882;10.920;2022-11-20T08:58:49;27.43;;;15.73;;
6739;SDS011;3407;49.882;10.920;2022-11-20T09:03:46;26.67;;;16.43;;
6739;SDS011;3407;49.882;10.920;2022-11-20T09:08:42;28.87;;;15.60;;
6739;SDS011;3407;49.882;10.920;2022-11-20T09:13:38;27.73;;;16.80;;
6739;SDS011;3407;49.882;10.920;2022-11-20T09:18:34;26.77;;;17.63;;
6739;SDS011;3407;49.882;10.920;2022-11-20T09:23:34;23.33;;;14.90;;
6739;SDS011;3407;49.882;10.920;2022-11-20T09:28:31;28.77;;;17.37;;
6739;SDS011;3407;49.882;10.920;2022-11-20T09:33:27;21.87;;;14.73;;
6739;SDS011;3407;49.882;10.920;2022-11-20T09:38:22;24.97;;;15.63;;
6739;SDS011;3407;49.882;10.920;2022-11-20T09:59:02;27.20;;;15.70;;
6739;SDS011;3407;49.882;10.920;2022-11-20T10:04:19;25.70;;;15.20;;
6739;SDS011;3407;49.882;10.920;2022-11-20T10:09:21;26.50;;;16.40;;
6739;SDS011;3407;49.882;10.920;2022-11-20T10:24:42;26.10;;;15.57;;
6739;SDS011;3407;49.882;10.920;2022-11-20T10:29:39;33.00;;;20.13;;
6739;SDS011;3407;49.882;10.920;2022-11-20T10:34:43;33.13;;;17.10;;
6739;SDS011;3407;49.882;10.920;2022-11-20T10:40:29;28.67;;;16.23;;
6739;SDS011;3407;49.882;10.920;2022-11-20T10:50:35;31.57;;;16.70;;
6739;SDS011;3407;49.882;10.920;2022-11-20T10:55:39;27.43;;;15.47;;
6739;SDS011;3407;49.882;10.920;2022-11-20T11:00:40;27.83;;;16.20;;
6739;SDS011;3407;49.882;10.920;2022-11-20T11:05:39;28.60;;;15.27;;
6739;SDS011;3407;49.882;10.920;2022-11-20T11:10:57;27.77;;;14.67;;
6739;SDS011;3407;49.882;10.920;2022-11-20T11:15:56;23.50;;;14.50;;
6739;SDS011;3407;49.882;10.920;2022-11-20T11:20:53;21.53;;;13.50;;
6739;SDS011;3407;49.882;10.920;2022-11-20T11:25:56;21.97;;;13.43;;
6739;SDS011;3407;49.882;10.920;2022-11-20T11:30:53;21.00;;;12.87;;
6739;SDS011;3407;49.882;10.920;2022-11-20T11:35:51;21.77;;;13.80;;
6739;SDS011;3407;49.882;10.920;2022-11-20T11:40:53;21.43;;;13.20;;
6739;SDS011;3407;49.882;10.920;2022-11-20T11:45:51;20.50;;;13.40;;
6739;SDS011;3407;49.882;10.920;2022-11-20T11:50:49;18.47;;;11.33;;
6739;SDS011;3407;49.882;10.920;2022-11-20T11:55:47;22.83;;;13.03;;
6739;SDS011;3407;49.882;10.920;2022-11-20T12:06:11;24.13;;;14.30;;
6739;SDS011;3407;49.882;10.920;2022-11-20T12:16:11;23.60;;;15.00;;
6739;SDS011;3407;49.882;10.920;2022-11-20T12:21:19;18.27;;;12.87;;
6739;SDS011;3407;49.882;10.920;2022-11-20T12:42:15;30.83;;;18.30;;
6739;SDS011;3407;49.882;10.920;2022-11-20T12:57:42;29.20;;;18.60;;
6739;SDS011;3407;49.882;10.920;2022-11-20T13:02:57;25.07;;;16.00;;
6739;SDS011;3407;49.882;10.920;2022-11-20T13:08:02;34.60;;;22.03;;
6739;SDS011;3407;49.882;10.920;2022-11-20T13:18:28;19.57;;;12.37;;
6739;SDS011;3407;49.882;10.920;2022-11-20T13:23:33;23.20;;;13.33;;
6739;SDS011;3407;49.882;10.920;2022-11-20T13:28:29;23.17;;;14.20;;
6739;SDS011;3407;49.882;10.920;2022-11-20T13:33:32;24.07;;;13.07;;
6739;SDS011;3407;49.882;10.920;2022-11-20T13:38:49;19.07;;;11.77;;
6739;SDS011;3407;49.882;10.920;2022-11-20T13:43:46;16.07;;;10.97;;
6739;SDS011;3407;49.882;10.920;2022-11-20T13:48:44;17.90;;;11.20;;
6739;SDS011;3407;49.882;10.920;2022-11-20T14:04:07;18.47;;;10.90;;
6739;SDS011;3407;49.882;10.920;2022-11-20T14:09:04;27.33;;;16.70;;
6739;SDS011;3407;49.882;10.920;2022-11-20T14:14:01;24.03;;;14.43;;
6739;SDS011;3407;49.882;10.920;2022-11-20T14:19:17;20.33;;;11.50;;
6739;SDS011;3407;49.882;10.920;2022-11-20T14:24:18;22.00;;;15.43;;
6739;SDS011;3407;49.882;10.920;2022-11-20T14:29:16;17.83;;;11.00;;
6739;SDS011;3407;49.882;10.920;2022-11-20T14:34:28;14.97;;;10.00;;
6739;SDS011;3407;49.882;10.920;2022-11-20T14:39:33;19.93;;;11.43;;
6739;SDS011;3407;49.882;10.920;2022-11-20T14:44:31;17.70;;;10.73;;
6739;SDS011;3407;49.882;10.920;2022-11-20T14:49:29;17.47;;;10.17;;
6739;SDS011;3407;49.882;10.920;2022-11-20T14:54:26;15.63;;;10.57;;
6739;SDS011;3407;49.882;10.920;2022-11-20T14:59:23;18.50;;;10.53;;
6739;SDS011;3407;49.882;10.920;2022-11-20T15:04:20;20.27;;;12.20;;
6739;SDS011;3407;49.882;10.920;2022-11-20T15:09:15;22.27;;;11.90;;
6739;SDS011;3407;49.882;10.920;2022-11-20T15:14:11;17.60;;;11.40;;
6739;SDS011;3407;49.882;10.920;2022-11-20T15:19:09;16.57;;;10.77;;
6739;SDS011;3407;49.882;10.920;2022-11-20T15:24:12;20.83;;;11.43;;
6739;SDS011;3407;49.882;10.920;2022-11-20T15:29:11;19.27;;;12.13;;
6739;SDS011;3407;49.882;10.920;2022-11-20T15:34:12;21.47;;;12.67;;
6739;SDS011;3407;49.882;10.920;2022-11-20T15:39:10;20.23;;;12.57;;
6739;SDS011;3407;49.882;10.920;2022-11-20T15:44:06;34.20;;;17.73;;
6739;SDS011;3407;49.882;10.920;2022-11-20T15:49:01;28.57;;;16.03;;
6739;SDS011;3407;49.882;10.920;2022-11-20T15:53:58;22.57;;;14.13;;
6739;SDS011;3407;49.882;10.920;2022-11-20T15:58:54;21.03;;;12.03;;
6739;SDS011;3407;49.882;10.920;2022-11-20T16:03:49;21.87;;;11.93;;
6739;SDS011;3407;49.882;10.920;2022-11-20T16:08:45;19.13;;;10.43;;
6739;SDS011;3407;49.882;10.920;2022-11-20T16:13:41;27.03;;;13.37;;
6739;SDS011;3407;49.882;10.920;2022-11-20T16:18:56;19.60;;;11.60;;
6739;SDS011;3407;49.882;10.920;2022-11-20T16:23:52;20.80;;;12.10;;
6739;SDS011;3407;49.882;10.920;2022-11-20T16:28:47;22.00;;;12.50;;
6739;SDS011;3407;49.882;10.920;2022-11-20T16:33:43;23.87;;;13.43;;
6739;SDS011;3407;49.882;10.920;2022-11-20T16:38:51;19.43;;;12.17;;
6739;SDS011;3407;49.882;10.920;2022-11-20T16:43:51;17.30;;;12.13;;
6739;SDS011;3407;49.882;10.920;2022-11-20T16:48:52;23.30;;;12.87;;
6739;SDS011;3407;49.882;10.920;2022-11-20T16:53:49;23.90;;;12.63;;
6739;SDS011;3407;49.882;10.920;2022-11-20T16:58:45;24.30;;;13.70;;
6739;SDS011;3407;49.882;10.920;2022-11-20T17:03:42;24.00;;;12.87;;
6739;SDS011;3407;49.882;10.920;2022-11-20T17:08:40;21.43;;;11.97;;
6739;SDS011;3407;49.882;10.920;2022-11-20T17:13:36;22.67;;;12.30;;
6739;SDS011;3407;49.882;10.920;2022-11-20T17:18:32;23.67;;;12.43;;
6739;SDS011;3407;49.882;10.920;2022-11-20T17:23:28;20.30;;;13.30;;
6739;SDS011;3407;49.882;10.920;2022-11-20T17:28:24;24.37;;;15.37;;
6739;SDS011;3407;49.882;10.920;2022-11-20T17:33:20;31.07;;;18.57;;
6739;SDS011;3407;49.882;10.920;2022-11-20T17:38:15;26.93;;;18.30;;
6739;SDS011;3407;49.882;10.920;2022-11-20T17:43:11;24.67;;;14.17;;
6739;SDS011;3407;49.882;10.920;2022-11-20T17:48:07;30.47;;;17.83;;
6739;SDS011;3407;49.882;10.920;2022-11-20T17:53:02;23.03;;;15.17;;
6739;SDS011;3407;49.882;10.920;2022-11-20T17:57:58;29.47;;;16.07;;
6739;SDS011;3407;49.882;10.920;2022-11-20T18:02:56;18.40;;;12.17;;
6739;SDS011;3407;49.882;10.920;2022-11-20T18:07:53;19.43;;;13.33;;
6739;SDS011;3407;49.882;10.920;2022-11-20T18:12:48;21.00;;;13.50;;
6739;SDS011;3407;49.882;10.920;2022-11-20T18:17:44;22.00;;;12.63;;
6739;SDS011;3407;49.882;10.920;2022-11-20T18:22:39;36.20;;;18.80;;
6739;SDS011;3407;49.882;10.920;2022-11-20T18:27:35;29.33;;;16.07;;
6739;SDS011;3407;49.882;10.920;2022-11-20T18:32:31;22.57;;;13.97;;
6739;SDS011;3407;49.882;10.920;2022-11-20T18:37:30;30.20;;;16.30;;
6739;SDS011;3407;49.882;10.920;2022-11-20T18:42:26;27.30;;;16.03;;
6739;SDS011;3407;49.882;10.920;2022-11-20T18:47:40;20.70;;;13.33;;
6739;SDS011;3407;49.882;10.920;2022-11-20T18:52:37;26.27;;;16.60;;
6739;SDS011;3407;49.882;10.920;2022-11-20T18:57:34;20.63;;;13.43;;
6739;SDS011;3407;49.882;10.920;2022-11-20T19:02:30;25.60;;;14.07;;
6739;SDS011;3407;49.882;10.920;2022-11-20T19:07:26;26.17;;;14.40;;
6739;SDS011;3407;49.882;10.920;2022-11-20T19:12:22;25.50;;;15.13;;
6739;SDS011;3407;49.882;10.920;2022-11-20T19:17:17;23.77;;;15.70;;
6739;SDS011;3407;49.882;10.920;2022-11-20T19:22:13;23.13;;;13.20;;
6739;SDS011;3407;49.882;10.920;2022-11-20T19:27:09;25.10;;;13.70;;
6739;SDS011;3407;49.882;10.920;2022-11-20T19:32:05;22.23;;;14.70;;
6739;SDS011;3407;49.882;10.920;2022-11-20T19:37:00;24.43;;;14.90;;
6739;SDS011;3407;49.882;10.920;2022-11-20T19:41:56;20.80;;;12.67;;
6739;SDS011;3407;49.882;10.920;2022-11-20T19:46:52;39.93;;;22.77;;
6739;SDS011;3407;49.882;10.920;2022-11-20T19:51:48;23.40;;;15.57;;
6739;SDS011;3407;49.882;10.920;2022-11-20T19:56:45;22.63;;;15.60;;
6739;SDS011;3407;49.882;10.920;2022-11-20T20:01:42;24.30;;;15.67;;
6739;SDS011;3407;49.882;10.920;2022-11-20T20:06:38;25.60;;;15.87;;
6739;SDS011;3407;49.882;10.920;2022-11-20T20:11:35;25.17;;;16.23;;
6739;SDS011;3407;49.882;10.920;2022-11-20T20:16:31;23.83;;;13.80;;
6739;SDS011;3407;49.882;10.920;2022-11-20T20:21:28;19.83;;;13.50;;
6739;SDS011;3407;49.882;10.920;2022-11-20T20:26:25;21.63;;;14.30;;
6739;SDS011;3407;49.882;10.920;2022-11-20T20:31:23;17.87;;;13.00;;
6739;SDS011;3407;49.882;10.920;2022-11-20T20:36:21;22.43;;;13.60;;
6739;SDS011;3407;49.882;10.920;2022-11-20T20:41:18;22.67;;;14.17;;
6739;SDS011;3407;49.882;10.920;2022-11-20T20:46:14;20.17;;;14.10;;
6739;SDS011;3407;49.882;10.920;2022-11-20T20:51:09;28.50;;;16.30;;
6739;SDS011;3407;49.882;10.920;2022-11-20T20:56:05;21.90;;;15.13;;
6739;SDS011;3407;49.882;10.920;2022-11-20T21:01:05;68.33;;;37.17;;
6739;SDS011;3407;49.882;10.920;2022-11-20T21:06:02;43.83;;;23.77;;
6739;SDS011;3407;49.882;10.920;2022-11-20T21:11:00;15.13;;;11.77;;
6739;SDS011;3407;49.882;10.920;2022-11-20T21:15:57;22.17;;;14.77;;
6739;SDS011;3407;49.882;10.920;2022-11-20T21:20:53;12.77;;;9.60;;
6739;SDS011;3407;49.882;10.920;2022-11-20T21:26:08;11.60;;;8.60;;
6739;SDS011;3407;49.882;10.920;2022-11-20T21:31:05;10.70;;;8.20;;
6739;SDS011;3407;49.882;10.920;2022-11-20T21:36:01;13.57;;;8.23;;
6739;SDS011;3407;49.882;10.920;2022-11-20T21:40:58;13.50;;;8.40;;
6739;SDS011;3407;49.882;10.920;2022-11-20T21:45:58;11.03;;;8.40;;
6739;SDS011;3407;49.882;10.920;2022-11-20T21:51:05;10.70;;;8.50;;
6739;SDS011;3407;49.882;10.920;2022-11-20T21:56:02;9.73;;;7.93;;
6739;SDS011;3407;49.882;10.920;2022-11-20T22:00:59;8.57;;;6.60;;
6739;SDS011;3407;49.882;10.920;2022-11-20T22:06:00;8.47;;;5.43;;
6739;SDS011;3407;49.882;10.920;2022-11-20T22:10:57;7.57;;;5.67;;
6739;SDS011;3407;49.882;10.920;2022-11-20T22:15:59;9.27;;;5.83;;
6739;SDS011;3407;49.882;10.920;2022-11-20T22:20:55;5.30;;;4.83;;
6739;SDS011;3407;49.882;10.920;2022-11-20T22:25:51;5.57;;;5.07;;
6739;SDS011;3407;49.882;10.920;2022-11-20T22:30:46;8.97;;;6.10;;
6739;SDS011;3407;49.882;10.920;2022-11-20T22:35:42;5.20;;;4.80;;
6739;SDS011;3407;49.882;10.920;2022-11-20T22:40:37;5.53;;;4.80;;
6739;SDS011;3407;49.882;10.920;2022-11-20T22:45:33;4.90;;;4.50;;
6739;SDS011;3407;49.882;10.920;2022-11-20T22:50:29;4.80;;;4.40;;
6739;SDS011;3407;49.882;10.920;2022-11-20T22:55:25;5.70;;;4.50;;
6739;SDS011;3407;49.882;10.920;2022-11-20T23:00:20;5.93;;;4.60;;
6739;SDS011;3407;49.882;10.920;2022-11-20T23:05:16;3.80;;;3.40;;
6739;SDS011;3407;49.882;10.920;2022-11-20T23:10:11;4.20;;;3.87;;
6739;SDS011;3407;49.882;10.920;2022-11-20T23:15:07;4.00;;;3.70;;
6739;SDS011;3407;49.882;10.920;2022-11-20T23:20:03;4.27;;;3.93;;
6739;SDS011;3407;49.882;10.920;2022-11-20T23:24:59;4.17;;;3.77;;
6739;SDS011;3407;49.882;10.920;2022-11-20T23:29:54;4.50;;;4.10;;
6739;SDS011;3407;49.882;10.920;2022-11-20T23:34:52;4.27;;;3.30;;
6739;SDS011;3407;49.882;10.920;2022-11-20T23:39:48;4.83;;;3.43;;
6739;SDS011;3407;49.882;10.920;2022-11-20T23:44:43;4.10;;;3.70;;
6739;SDS011;3407;49.882;10.920;2022-11-20T23:49:39;3.43;;;3.13;;
6739;SDS011;3407;49.882;10.920;2022-11-20T23:54:34;4.03;;;3.00;;
6739;SDS011;3407;49.882;10.920;2022-11-20T23:59:30;3.10;;;2.90;;
